Time;durP1;ratioP1;P1;durP2;ratioP2;P2;SDS_P1;SDS_P2;PMS_P1;PMS_P2;Temp;Humidity;BMP_temperature;BMP_pressure;BME280_temperature;BME280_humidity;BME280_pressure;Samples;Min_cycle;Max_cycle;Signal;HPM_P1;HPM_P2
2022/07/05 00:00:06;;;;;;;3.63;2.60;;;14.00;99.90;;;;;;5060822;28;20187;-71
2022/07/05 00:02:32;;;;;;;5.00;2.78;;;13.90;99.90;;;;;;5055982;28;20140;-71
2022/07/05 00:04:58;;;;;;;3.40;2.97;;;13.90;99.90;;;;;;5056755;28;20064;-71
2022/07/05 00:07:23;;;;;;;4.57;2.78;;;13.80;99.90;;;;;;5053891;28;20119;-71
2022/07/05 00:09:50;;;;;;;3.13;2.80;;;13.80;99.90;;;;;;5056678;28;21523;-71
2022/07/05 00:12:17;;;;;;;6.30;3.80;;;13.80;99.90;;;;;;5053226;28;20060;-71
2022/07/05 00:14:43;;;;;;;4.68;2.80;;;13.70;99.90;;;;;;5061707;28;20361;-71
2022/07/05 00:17:10;;;;;;;5.07;3.70;;;13.70;99.90;;;;;;5059650;28;20064;-71
2022/07/05 00:19:36;;;;;;;3.53;3.23;;;13.70;99.90;;;;;;5059574;28;20124;-71
2022/07/05 00:22:02;;;;;;;4.68;3.63;;;13.70;99.90;;;;;;5053079;28;20175;-71
2022/07/05 00:24:28;;;;;;;3.90;3.50;;;13.70;99.90;;;;;;5057674;28;20045;-71
2022/07/05 00:26:54;;;;;;;4.07;2.83;;;13.70;99.90;;;;;;5059519;28;20507;-71
2022/07/05 00:29:19;;;;;;;4.32;3.72;;;13.70;99.90;;;;;;5054358;28;20041;-71
2022/07/05 00:31:45;;;;;;;4.38;3.13;;;13.60;99.90;;;;;;5049821;28;20047;-72
2022/07/05 00:34:10;;;;;;;3.67;3.38;;;13.60;99.90;;;;;;5053094;28;20037;-73
2022/07/05 00:36:36;;;;;;;4.30;3.33;;;13.60;99.90;;;;;;5061204;28;20180;-72
2022/07/05 00:39:02;;;;;;;4.40;3.78;;;13.50;99.90;;;;;;5053280;28;20056;-74
2022/07/05 00:41:27;;;;;;;6.53;3.45;;;13.50;99.90;;;;;;5052800;28;20037;-74
2022/07/05 00:43:55;;;;;;;5.10;3.67;;;13.50;99.90;;;;;;5060494;28;20056;-74
2022/07/05 00:46:21;;;;;;;3.65;3.35;;;13.50;99.90;;;;;;5055820;28;20040;-72
2022/07/05 00:48:47;;;;;;;4.47;3.55;;;13.40;99.90;;;;;;5051835;28;20041;-72
2022/07/05 00:51:12;;;;;;;5.35;3.70;;;13.40;99.90;;;;;;5050163;28;20033;-73
2022/07/05 00:53:38;;;;;;;4.88;3.70;;;13.40;99.90;;;;;;5054266;28;20033;-73
2022/07/05 00:56:04;;;;;;;4.70;4.07;;;13.30;99.90;;;;;;5056801;28;20080;-73
2022/07/05 00:58:32;;;;;;;5.47;3.80;;;13.30;99.90;;;;;;5054947;28;20036;-73
2022/07/05 01:00:57;;;;;;;8.03;4.40;;;13.20;99.90;;;;;;5055319;28;20426;-73
2022/07/05 01:03:23;;;;;;;5.38;4.10;;;13.20;99.90;;;;;;5045237;28;20311;-73
2022/07/05 01:05:49;;;;;;;4.82;3.80;;;13.20;99.90;;;;;;5058765;28;20484;-73
2022/07/05 01:08:15;;;;;;;6.05;4.00;;;13.20;99.90;;;;;;5052024;28;20044;-72
2022/07/05 01:10:41;;;;;;;4.95;4.50;;;13.10;99.90;;;;;;5055059;28;20585;-73
2022/07/05 01:13:08;;;;;;;6.40;4.47;;;13.10;99.90;;;;;;5054468;28;20069;-73
2022/07/05 01:15:34;;;;;;;6.18;4.63;;;13.10;99.90;;;;;;5054868;28;20049;-72
2022/07/05 01:18:00;;;;;;;5.05;4.60;;;13.00;99.90;;;;;;5054572;28;20092;-71
2022/07/05 01:20:26;;;;;;;5.45;4.60;;;13.00;99.90;;;;;;5052281;28;20065;-72
2022/07/05 01:22:53;;;;;;;4.55;4.15;;;13.00;99.90;;;;;;5051943;28;20480;-71
2022/07/05 01:25:20;;;;;;;5.95;4.88;;;13.00;99.90;;;;;;5055397;28;20033;-71
2022/07/05 01:27:48;;;;;;;5.22;4.78;;;12.90;99.90;;;;;;5054549;28;20048;-71
2022/07/05 01:30:14;;;;;;;5.60;4.65;;;12.90;99.90;;;;;;5058270;28;20037;-71
2022/07/05 01:32:39;;;;;;;7.20;4.35;;;12.90;99.90;;;;;;5048535;28;20365;-73
2022/07/05 01:35:07;;;;;;;6.95;4.82;;;12.80;99.90;;;;;;5042230;28;20052;-73
2022/07/05 01:37:33;;;;;;;5.22;4.63;;;12.80;99.90;;;;;;5050874;28;20083;-73
2022/07/05 01:40:02;;;;;;;6.50;5.10;;;12.80;99.90;;;;;;5052124;28;20087;-73
2022/07/05 01:42:27;;;;;;;5.30;4.80;;;12.70;99.90;;;;;;5049719;28;20056;-74
2022/07/05 01:44:53;;;;;;;6.25;4.97;;;12.80;99.90;;;;;;5053449;28;20041;-73
2022/07/05 01:47:18;;;;;;;4.68;4.22;;;12.80;99.90;;;;;;5061463;28;20045;-73
2022/07/05 01:49:48;;;;;;;5.90;5.32;;;12.80;99.90;;;;;;5050939;28;20135;-73
2022/07/05 01:52:15;;;;;;;5.70;4.93;;;12.70;99.90;;;;;;5055169;28;20560;-72
2022/07/05 01:54:41;;;;;;;7.50;6.03;;;12.70;99.90;;;;;;5054406;28;20448;-71
2022/07/05 01:57:08;;;;;;;6.25;5.65;;;12.70;99.90;;;;;;5054786;28;20074;-71
2022/07/05 01:59:34;;;;;;;5.90;5.40;;;12.60;99.90;;;;;;5049433;28;20131;-71
2022/07/05 02:02:00;;;;;;;6.05;5.25;;;12.60;99.90;;;;;;5050761;28;20044;-71
2022/07/05 02:04:27;;;;;;;6.00;5.40;;;12.60;99.90;;;;;;5046355;28;20371;-71
2022/07/05 02:06:52;;;;;;;7.63;5.50;;;12.60;99.90;;;;;;5058398;28;20123;-71
2022/07/05 02:09:18;;;;;;;7.55;5.85;;;12.60;99.90;;;;;;5052648;28;20451;-71
2022/07/05 02:11:43;;;;;;;5.97;5.47;;;12.60;99.90;;;;;;5056076;28;20033;-70
2022/07/05 02:14:09;;;;;;;9.63;6.00;;;12.50;99.90;;;;;;5051587;28;20048;-70
2022/07/05 02:16:35;;;;;;;7.82;6.20;;;12.50;99.90;;;;;;5055614;28;20128;-70
2022/07/05 02:19:00;;;;;;;7.68;5.72;;;12.50;99.90;;;;;;5052692;28;20037;-70
2022/07/05 02:21:26;;;;;;;6.03;5.47;;;12.50;99.90;;;;;;5052348;28;20065;-71
2022/07/05 02:23:52;;;;;;;6.78;5.95;;;12.40;99.90;;;;;;5054515;28;20087;-70
2022/07/05 02:26:17;;;;;;;7.97;5.53;;;12.40;99.90;;;;;;5057621;28;20033;-71
2022/07/05 02:28:43;;;;;;;6.18;5.47;;;12.40;99.90;;;;;;5052005;28;20041;-70
2022/07/05 02:31:09;;;;;;;9.13;5.97;;;12.40;99.90;;;;;;5052747;28;20063;-70
2022/07/05 02:33:34;;;;;;;6.30;5.30;;;12.40;99.90;;;;;;5047093;28;20120;-70
2022/07/05 02:36:08;;;;;;;6.38;5.13;;;12.30;99.90;;;;;;5051830;28;20507;-71
2022/07/05 02:38:34;;;;;;;7.40;5.10;;;12.30;99.90;;;;;;5054284;28;20040;-70
2022/07/05 02:41:00;;;;;;;7.50;5.15;;;12.30;99.90;;;;;;5048767;28;20087;-69
2022/07/05 02:43:25;;;;;;;6.15;5.55;;;12.30;99.90;;;;;;5053156;28;20132;-70
2022/07/05 02:45:51;;;;;;;5.53;5.03;;;12.30;99.90;;;;;;5053101;28;20434;-73
2022/07/05 02:48:17;;;;;;;8.55;5.75;;;12.30;99.90;;;;;;5057091;28;20155;-73
2022/07/05 02:50:42;;;;;;;7.90;4.93;;;12.20;99.90;;;;;;5054866;28;20098;-74
2022/07/05 02:53:08;;;;;;;6.70;5.70;;;12.20;99.90;;;;;;5049007;28;20138;-71
2022/07/05 02:55:33;;;;;;;10.63;5.78;;;12.00;99.90;;;;;;5053679;28;20033;-71
2022/07/05 02:57:59;;;;;;;9.50;5.88;;;12.20;99.90;;;;;;5051150;28;20090;-73
2022/07/05 03:00:24;;;;;;;6.30;5.65;;;12.20;99.90;;;;;;5052220;28;20048;-72
2022/07/05 03:02:50;;;;;;;7.60;5.72;;;12.10;99.90;;;;;;5058329;28;20064;-73
2022/07/05 03:05:15;;;;;;;10.40;6.00;;;12.10;99.90;;;;;;5051548;28;20488;-73
2022/07/05 03:07:41;;;;;;;5.95;5.35;;;12.00;99.90;;;;;;5048483;28;20127;-75
2022/07/05 03:10:07;;;;;;;6.55;5.90;;;12.10;99.90;;;;;;5053011;28;20064;-74
2022/07/05 03:12:32;;;;;;;7.93;6.60;;;12.00;99.90;;;;;;5056744;28;20457;-75
2022/07/05 03:14:58;;;;;;;6.60;5.97;;;12.00;99.90;;;;;;5052333;28;20037;-72
2022/07/05 03:17:23;;;;;;;6.97;5.47;;;12.00;99.90;;;;;;5050979;28;20102;-72
2022/07/05 03:19:49;;;;;;;8.75;6.18;;;12.00;99.90;;;;;;5050824;28;20123;-72
2022/07/05 03:22:14;;;;;;;6.60;6.07;;;12.00;99.90;;;;;;5052741;28;20040;-72
2022/07/05 03:24:40;;;;;;;6.15;5.43;;;12.00;99.90;;;;;;5056521;28;20500;-72
2022/07/05 03:27:05;;;;;;;6.82;6.20;;;12.00;99.90;;;;;;5053026;28;20041;-72
2022/07/05 03:29:31;;;;;;;7.38;6.53;;;12.00;99.90;;;;;;5054174;28;20059;-70
2022/07/05 03:31:57;;;;;;;7.63;6.93;;;12.00;99.90;;;;;;5053602;28;20163;-69
2022/07/05 03:34:22;;;;;;;7.30;6.60;;;12.00;99.90;;;;;;5051043;28;20087;-69
2022/07/05 03:36:48;;;;;;;7.68;6.47;;;12.00;99.90;;;;;;5050160;28;20547;-69
2022/07/05 03:39:13;;;;;;;8.65;6.95;;;12.00;99.90;;;;;;5052642;28;20467;-71
2022/07/05 03:41:39;;;;;;;7.30;6.63;;;12.10;99.90;;;;;;5053049;28;20049;-71
2022/07/05 03:44:04;;;;;;;6.63;5.78;;;12.10;99.90;;;;;;5051051;28;20072;-71
2022/07/05 03:46:30;;;;;;;8.55;5.25;;;12.10;99.90;;;;;;5051341;28;20097;-71
2022/07/05 03:48:56;;;;;;;7.00;6.30;;;12.10;99.90;;;;;;5050896;28;20047;-71
2022/07/05 03:51:21;;;;;;;6.93;6.38;;;12.10;99.90;;;;;;5051918;28;20056;-71
2022/07/05 03:53:47;;;;;;;7.25;6.57;;;12.20;99.90;;;;;;5051256;28;20841;-71
2022/07/05 03:56:12;;;;;;;8.52;6.53;;;12.20;99.90;;;;;;5050525;28;20594;-71
2022/07/05 03:58:38;;;;;;;7.88;7.13;;;12.20;99.90;;;;;;5052215;28;20499;-71
2022/07/05 04:01:03;;;;;;;7.93;6.97;;;12.20;99.90;;;;;;5044188;28;20086;-71
2022/07/05 04:03:29;;;;;;;7.60;6.90;;;12.30;99.90;;;;;;5054641;28;20408;-71
2022/07/05 04:05:54;;;;;;;7.80;7.10;;;12.30;99.90;;;;;;5052554;28;20400;-72
2022/07/05 04:08:22;;;;;;;7.00;6.25;;;12.40;99.90;;;;;;5054510;28;20060;-72
2022/07/05 04:10:47;;;;;;;8.05;7.25;;;12.40;99.90;;;;;;5052853;28;20071;-72
2022/07/05 04:13:13;;;;;;;9.18;6.97;;;12.50;99.90;;;;;;5053246;28;20460;-72
2022/07/05 04:15:38;;;;;;;11.35;6.95;;;12.60;99.90;;;;;;5048400;28;20488;-72
2022/07/05 04:18:04;;;;;;;7.93;6.70;;;12.80;99.90;;;;;;5052491;28;20045;-72
2022/07/05 04:20:31;;;;;;;7.35;6.68;;;12.90;99.90;;;;;;5056161;28;20039;-72
2022/07/05 04:22:56;;;;;;;7.15;6.40;;;13.10;99.90;;;;;;5052275;28;20073;-72
2022/07/05 04:25:22;;;;;;;8.50;6.80;;;13.20;99.90;;;;;;5055010;28;20126;-71
2022/07/05 04:27:52;;;;;;;6.90;6.30;;;13.30;99.90;;;;;;5053063;28;20507;-71
2022/07/05 04:30:23;;;;;;;7.88;6.38;;;13.40;99.90;;;;;;5052132;28;20044;-71
2022/07/05 04:32:49;;;;;;;7.78;5.95;;;13.50;99.90;;;;;;5051706;28;20170;-70
2022/07/05 04:35:15;;;;;;;6.60;6.10;;;13.50;99.90;;;;;;5050904;28;20045;-71
2022/07/05 04:37:41;;;;;;;6.80;6.20;;;13.60;99.90;;;;;;5053690;28;20044;-71
2022/07/05 04:40:08;;;;;;;6.93;6.30;;;13.70;99.90;;;;;;5055381;28;20083;-70
2022/07/05 04:42:34;;;;;;;7.30;6.60;;;13.80;99.90;;;;;;5036275;28;20052;-72
2022/07/05 04:45:00;;;;;;;7.22;6.50;;;14.00;99.90;;;;;;5059587;28;20033;-72
2022/07/05 04:47:26;;;;;;;7.63;6.93;;;14.90;99.90;;;;;;5059380;28;20094;-73
2022/07/05 04:49:52;;;;;;;7.72;6.90;;;15.90;99.90;;;;;;5053238;28;20049;-75
2022/07/05 04:52:18;;;;;;;6.80;6.10;;;17.20;99.90;;;;;;5054961;28;20071;-75
2022/07/05 04:54:43;;;;;;;6.00;5.40;;;17.30;99.90;;;;;;5053565;28;20064;-75
2022/07/05 04:57:09;;;;;;;6.00;5.50;;;17.80;99.90;;;;;;5063429;28;20048;-76
2022/07/05 04:59:34;;;;;;;5.97;5.15;;;17.90;99.90;;;;;;5056537;28;20037;-75
2022/07/05 05:02:00;;;;;;;5.72;5.22;;;18.80;99.90;;;;;;5053374;28;20045;-75
2022/07/05 05:04:26;;;;;;;6.55;5.30;;;18.90;99.90;;;;;;5059578;28;20190;-72
2022/07/05 05:06:51;;;;;;;6.13;5.00;;;20.00;99.90;;;;;;5054519;28;20120;-72
2022/07/05 05:09:17;;;;;;;6.68;5.05;;;20.00;99.90;;;;;;5056193;28;20041;-71
2022/07/05 05:11:43;;;;;;;5.80;4.57;;;19.70;99.90;;;;;;5053798;28;20040;-72
2022/07/05 05:14:08;;;;;;;6.18;4.90;;;19.40;99.90;;;;;;5050197;28;20045;-73
2022/07/05 05:16:34;;;;;;;5.65;5.10;;;19.30;99.90;;;;;;5054468;28;20041;-72
2022/07/05 05:19:00;;;;;;;4.90;4.40;;;19.50;99.90;;;;;;5054374;28;20033;-72
2022/07/05 05:21:25;;;;;;;4.75;4.35;;;19.50;99.90;;;;;;5055965;28;20045;-71
2022/07/05 05:23:51;;;;;;;5.07;4.55;;;19.40;99.90;;;;;;5053097;28;20430;-72
2022/07/05 05:26:16;;;;;;;6.78;5.03;;;19.10;99.90;;;;;;5059126;28;20149;-72
2022/07/05 05:28:42;;;;;;;10.80;5.07;;;19.40;99.90;;;;;;5057628;28;20028;-71
2022/07/05 05:31:07;;;;;;;5.13;4.63;;;19.30;99.90;;;;;;5055055;28;20037;-73
2022/07/05 05:33:33;;;;;;;6.38;5.13;;;19.50;99.90;;;;;;5052238;28;20041;-74
2022/07/05 05:36:00;;;;;;;5.38;4.78;;;20.50;99.90;;;;;;5053639;28;20041;-73
2022/07/05 05:38:25;;;;;;;9.63;4.68;;;21.80;99.90;;;;;;5055452;28;20045;-72
2022/07/05 05:40:51;;;;;;;5.45;4.40;;;22.30;99.90;;;;;;5056192;28;20036;-72
2022/07/05 05:43:17;;;;;;;5.90;4.28;;;23.60;99.90;;;;;;5055613;28;20036;-73
2022/07/05 05:45:42;;;;;;;6.03;4.70;;;24.20;99.90;;;;;;5056944;28;20779;-73
2022/07/05 05:48:08;;;;;;;5.45;4.15;;;24.60;99.90;;;;;;5053958;28;20129;-72
2022/07/05 05:50:35;;;;;;;5.35;4.47;;;25.30;99.90;;;;;;5054158;28;20040;-72
2022/07/05 05:53:01;;;;;;;;;;;26.10;99.90;;;;;;5055622;28;20071;-68
2022/07/05 05:55:28;;;;;;;7.00;3.78;;;26.50;99.60;;;;;;5059593;28;19972;-69
2022/07/05 05:57:54;;;;;;;6.88;3.90;;;27.00;98.50;;;;;;5060508;28;20052;-71
2022/07/05 06:00:20;;;;;;;8.07;4.18;;;26.40;96.40;;;;;;5054980;28;20045;-72
2022/07/05 06:02:48;;;;;;;5.03;3.77;;;26.20;97.00;;;;;;5049864;28;20049;-71
2022/07/05 06:05:14;;;;;;;4.38;3.88;;;25.50;95.30;;;;;;5054587;28;20140;-72
2022/07/05 06:07:46;;;;;;;4.70;3.40;;;25.20;96.90;;;;;;5057132;28;20211;-71
2022/07/05 06:10:15;;;;;;;4.30;3.90;;;25.90;97.30;;;;;;5053260;28;20509;-69
2022/07/05 06:12:40;;;;;;;4.93;3.88;;;26.40;96.90;;;;;;5055507;28;20131;-70
2022/07/05 06:15:07;;;;;;;4.32;3.60;;;26.80;95.10;;;;;;5058318;28;20492;-70
2022/07/05 06:17:39;;;;;;;3.80;3.42;;;27.10;95.40;;;;;;5057113;28;20045;-70
2022/07/05 06:20:09;;;;;;;5.25;3.50;;;27.80;93.70;;;;;;5058271;28;21415;-72
2022/07/05 06:22:35;;;;;;;3.70;3.30;;;28.00;94.40;;;;;;5055691;28;20049;-71
2022/07/05 06:25:01;;;;;;;3.72;2.78;;;28.10;92.10;;;;;;5059711;28;20040;-71
2022/07/05 06:27:27;;;;;;;5.45;3.17;;;28.20;91.80;;;;;;5056694;28;20475;-70
2022/07/05 06:29:54;;;;;;;3.55;3.10;;;28.60;91.60;;;;;;5053323;28;20064;-70
2022/07/05 06:32:19;;;;;;;4.63;2.72;;;28.70;89.80;;;;;;5051840;28;20044;-70
2022/07/05 06:34:45;;;;;;;3.75;2.88;;;28.90;88.30;;;;;;5042722;28;20460;-70
2022/07/05 06:37:10;;;;;;;3.88;2.95;;;29.20;88.30;;;;;;5054559;28;20049;-71
2022/07/05 06:39:36;;;;;;;3.30;2.80;;;29.20;87.30;;;;;;5050138;28;20045;-71
2022/07/05 06:42:02;;;;;;;3.63;2.78;;;29.00;86.00;;;;;;5051793;28;20484;-72
2022/07/05 06:44:28;;;;;;;3.33;2.58;;;29.20;86.30;;;;;;5053624;28;20410;-69
2022/07/05 06:46:54;;;;;;;3.35;2.47;;;29.20;84.20;;;;;;5056671;28;20037;-68
2022/07/05 06:49:19;;;;;;;2.75;2.53;;;29.10;82.90;;;;;;5051615;28;20037;-69
2022/07/05 06:51:45;;;;;;;4.15;2.83;;;29.10;79.70;;;;;;5053664;28;21124;-71
2022/07/05 06:54:10;;;;;;;2.60;2.40;;;29.00;79.60;;;;;;5058631;28;20041;-68
2022/07/05 06:56:36;;;;;;;3.33;2.53;;;29.10;81.60;;;;;;5053905;28;20048;-69
2022/07/05 06:59:02;;;;;;;3.50;2.55;;;28.50;79.40;;;;;;5057016;28;20052;-67
2022/07/05 07:01:28;;;;;;;2.85;2.40;;;28.10;80.90;;;;;;5049162;28;20526;-68
2022/07/05 07:03:53;;;;;;;3.17;2.30;;;27.50;80.20;;;;;;5049999;28;20044;-68
2022/07/05 07:06:19;;;;;;;4.13;2.22;;;27.40;81.90;;;;;;5051229;28;20095;-71
2022/07/05 07:11:30;;;;;;;5.93;2.55;;;;;;;;;;5054277;28;20106;-69
2022/07/05 07:13:56;;;;;;;3.50;2.20;;;25.90;81.30;;;;;;5048926;28;20504;-69
2022/07/05 07:16:21;;;;;;;5.25;2.05;;;25.50;83.10;;;;;;5047694;28;20071;-69
2022/07/05 07:18:47;;;;;;;3.67;2.25;;;25.10;84.60;;;;;;5055292;28;20072;-69
2022/07/05 07:21:12;;;;;;;3.42;2.40;;;25.10;85.90;;;;;;5055711;28;20037;-69
2022/07/05 07:23:38;;;;;;;5.55;2.47;;;24.80;86.00;;;;;;5053056;28;20048;-70
2022/07/05 07:26:04;;;;;;;3.17;1.90;;;24.60;86.70;;;;;;5071219;28;20127;-69
2022/07/05 07:28:29;;;;;;;7.57;2.40;;;24.40;86.40;;;;;;5063450;28;20045;-69
2022/07/05 07:30:55;;;;;;;3.33;2.00;;;24.00;87.90;;;;;;5052781;28;20047;-69
2022/07/05 07:33:21;;;;;;;4.40;1.90;;;23.90;89.30;;;;;;5058780;28;20040;-69
2022/07/05 07:35:47;;;;;;;4.93;1.80;;;23.90;89.00;;;;;;5051385;28;20036;-69
2022/07/05 07:38:12;;;;;;;3.40;1.52;;;24.10;90.40;;;;;;5054967;28;20442;-69
2022/07/05 07:40:38;;;;;;;3.45;1.70;;;24.30;89.30;;;;;;5051222;28;20041;-69
2022/07/05 07:43:03;;;;;;;2.72;1.52;;;24.30;89.40;;;;;;5046246;28;20124;-69
2022/07/05 07:45:30;;;;;;;4.03;1.50;;;24.40;88.30;;;;;;5052541;28;20063;-69
2022/07/05 07:47:56;;;;;;;2.35;1.70;;;24.60;88.60;;;;;;5065546;28;20135;-69
2022/07/05 07:50:22;;;;;;;2.83;1.60;;;24.30;89.20;;;;;;5066643;28;20061;-78
2022/07/05 07:52:47;;;;;;;4.45;1.30;;;24.30;89.40;;;;;;5062043;28;20040;-69
2022/07/05 07:55:13;;;;;;;4.55;1.52;;;24.10;89.30;;;;;;5056079;28;20068;-68
2022/07/05 07:57:39;;;;;;;4.13;1.30;;;23.90;89.50;;;;;;5056521;28;20083;-68
2022/07/05 08:00:05;;;;;;;3.53;1.33;;;23.90;90.00;;;;;;5053018;28;20132;-68
2022/07/05 08:02:31;;;;;;;3.10;1.40;;;23.50;89.80;;;;;;5055905;28;20176;-69
2022/07/05 08:04:57;;;;;;;3.38;1.63;;;23.70;90.10;;;;;;5059070;28;20132;-69
2022/07/05 08:07:24;;;;;;;4.05;1.88;;;23.60;89.70;;;;;;5073279;28;20094;-68
2022/07/05 08:09:50;;;;;;;2.90;1.90;;;23.70;90.20;;;;;;5063170;28;20040;-68
2022/07/05 08:12:16;;;;;;;2.47;1.50;;;23.70;90.80;;;;;;5058454;28;20209;-70
2022/07/05 08:14:42;;;;;;;2.90;1.38;;;23.90;90.60;;;;;;5068760;28;20124;-69
2022/07/05 08:17:08;;;;;;;3.70;1.30;;;24.10;90.10;;;;;;5057033;28;20044;-69
2022/07/05 08:22:19;;;;;;;2.83;1.25;;;24.00;89.60;;;;;;5051653;28;20121;-70
2022/07/05 08:24:45;;;;;;;3.13;1.30;;;23.70;89.70;;;;;;5058547;28;20040;-69
2022/07/05 08:27:11;;;;;;;3.30;0.90;;;23.90;88.60;;;;;;5053201;28;20084;-69
2022/07/05 08:29:37;;;;;;;2.15;1.15;;;23.70;88.10;;;;;;5055637;28;20554;-69
2022/07/05 08:32:03;;;;;;;2.95;1.30;;;23.30;88.40;;;;;;5063548;28;20044;-69
2022/07/05 08:34:28;;;;;;;3.05;1.20;;;23.60;88.70;;;;;;5061595;28;20033;-69
2022/07/05 08:36:54;;;;;;;2.65;1.00;;;23.90;89.10;;;;;;5060854;28;20579;-69
2022/07/05 08:39:20;;;;;;;3.13;1.10;;;24.30;87.70;;;;;;5067170;28;20546;-69
2022/07/05 08:41:50;;;;;;;4.53;1.20;;;24.20;88.00;;;;;;5058626;28;20051;-69
2022/07/05 08:44:19;;;;;;;2.58;1.23;;;23.80;87.40;;;;;;5055296;28;20377;-69
2022/07/05 08:46:47;;;;;;;5.63;1.25;;;24.00;89.60;;;;;;5064904;28;20436;-68
2022/07/05 08:49:14;;;;;;;4.80;1.17;;;23.60;86.90;;;;;;5067871;28;20465;-69
2022/07/05 08:51:42;;;;;;;3.95;1.17;;;23.50;89.70;;;;;;5057133;28;20041;-70
2022/07/05 08:54:12;;;;;;;3.20;1.10;;;22.90;88.10;;;;;;5059493;28;20110;-69
2022/07/05 08:56:41;;;;;;;3.22;1.50;;;22.70;89.30;;;;;;5057228;28;20106;-69
2022/07/05 08:59:06;;;;;;;4.68;1.25;;;22.70;90.70;;;;;;5060827;28;20060;-69
2022/07/05 09:01:34;;;;;;;4.07;1.60;;;22.40;90.60;;;;;;5056824;28;20488;-69
2022/07/05 09:04:03;;;;;;;2.92;1.30;;;22.40;91.40;;;;;;5056880;28;20085;-69
2022/07/05 09:06:32;;;;;;;5.25;1.20;;;21.90;91.00;;;;;;5054484;28;20055;-70
2022/07/05 09:08:59;;;;;;;3.60;1.20;;;21.90;91.90;;;;;;5067839;28;20112;-69
2022/07/05 09:11:48;;;;;;;;;;;21.80;91.90;;;;;;5057676;28;20377;-68
2022/07/05 09:14:23;;;;;;;6.93;1.40;;;22.00;92.40;;;;;;5047580;28;19921;-68
2022/07/05 09:16:49;;;;;;;3.53;1.20;;;22.50;92.70;;;;;;5052412;28;20052;-68
2022/07/05 09:19:15;;;;;;;2.60;1.10;;;22.50;92.30;;;;;;5056555;28;20037;-67
2022/07/05 09:21:41;;;;;;;3.35;1.38;;;22.40;92.20;;;;;;5054267;28;20045;-67
2022/07/05 09:24:09;;;;;;;4.30;1.00;;;22.60;91.80;;;;;;5056448;28;20041;-68
2022/07/05 09:26:39;;;;;;;7.60;1.20;;;22.30;90.20;;;;;;5054446;28;20037;-68
2022/07/05 09:29:18;;;;;;;4.95;1.30;;;22.40;90.60;;;;;;5056376;28;20118;-68
2022/07/05 09:31:45;;;;;;;3.72;1.30;;;22.70;90.80;;;;;;5056509;28;20067;-67
2022/07/05 09:34:13;;;;;;;2.67;1.00;;;23.10;90.90;;;;;;5046054;28;20439;-68
2022/07/05 09:36:51;;;;;;;2.75;0.95;;;23.50;90.90;;;;;;5035576;28;20128;-68
2022/07/05 09:39:19;;;;;;;4.15;1.30;;;23.70;90.30;;;;;;5040874;28;20446;-68
2022/07/05 09:41:45;;;;;;;3.67;1.08;;;23.70;90.40;;;;;;5053077;28;20037;-67
2022/07/05 09:44:10;;;;;;;1.55;0.93;;;23.50;90.00;;;;;;5054633;28;20056;-67
2022/07/05 09:46:36;;;;;;;3.22;1.33;;;23.10;86.90;;;;;;5054104;28;20045;-68
2022/07/05 09:49:01;;;;;;;3.25;0.93;;;22.80;88.20;;;;;;5052446;28;20041;-67
2022/07/05 09:51:27;;;;;;;2.05;1.17;;;22.30;89.10;;;;;;5054129;28;20037;-67
2022/07/05 09:53:55;;;;;;;3.72;1.10;;;22.10;91.00;;;;;;5053754;28;20481;-68
2022/07/05 09:56:21;;;;;;;2.08;0.95;;;22.40;91.00;;;;;;5052866;28;20115;-67
2022/07/05 09:58:47;;;;;;;2.90;1.10;;;22.40;91.80;;;;;;5054410;28;20045;-67
2022/07/05 10:01:32;;;;;;;3.60;1.20;;;22.20;91.40;;;;;;5053993;28;20586;-67
2022/07/05 10:04:01;;;;;;;2.22;1.00;;;22.50;91.20;;;;;;5053225;28;20096;-67
2022/07/05 10:06:28;;;;;;;3.40;0.90;;;22.90;90.90;;;;;;5053966;28;20099;-68
2022/07/05 10:08:54;;;;;;;2.25;1.10;;;23.20;90.60;;;;;;5053866;28;20087;-68
2022/07/05 10:11:21;;;;;;;2.55;0.90;;;23.60;90.30;;;;;;5052697;28;20400;-68
2022/07/05 10:13:52;;;;;;;3.65;1.13;;;23.40;90.20;;;;;;5052634;28;20183;-67
2022/07/05 10:16:19;;;;;;;2.42;0.95;;;23.20;90.10;;;;;;5055991;28;20040;-67
2022/07/05 10:18:46;;;;;;;4.53;1.10;;;22.70;88.90;;;;;;5061770;28;20055;-67
2022/07/05 10:21:14;;;;;;;3.92;1.35;;;22.60;90.00;;;;;;5063858;28;20154;-67
2022/07/05 10:23:47;;;;;;;5.75;1.90;;;22.80;90.60;;;;;;5064484;28;20045;-67
2022/07/05 10:26:14;;;;;;;2.20;0.93;;;23.40;90.90;;;;;;5047766;28;20492;-68
2022/07/05 10:28:44;;;;;;;2.85;0.98;;;23.40;90.00;;;;;;5058402;28;20040;-67
2022/07/05 10:31:10;;;;;;;3.28;0.80;;;23.40;89.90;;;;;;5063312;28;20045;-68
2022/07/05 10:33:36;;;;;;;2.28;1.08;;;23.30;90.10;;;;;;5066559;28;20512;-68
2022/07/05 10:36:03;;;;;;;3.38;1.33;;;23.20;89.70;;;;;;5053893;28;20071;-67
2022/07/05 10:38:29;;;;;;;2.05;0.80;;;23.00;88.80;;;;;;5051727;28;20436;-67
2022/07/05 10:41:01;;;;;;;3.95;1.02;;;23.50;90.50;;;;;;5053017;28;20032;-67
2022/07/05 10:43:28;;;;;;;3.05;1.10;;;24.00;90.40;;;;;;5057422;28;20099;-67
2022/07/05 10:45:53;;;;;;;2.95;1.00;;;24.10;89.90;;;;;;5051319;28;20041;-67
2022/07/05 10:48:24;;;;;;;3.10;1.05;;;23.90;87.80;;;;;;5051711;28;20477;-67
2022/07/05 10:51:03;;;;;;;1.83;1.10;;;23.90;86.90;;;;;;5054029;28;20037;-67
2022/07/05 10:53:38;;;;;;;2.15;0.90;;;23.90;87.00;;;;;;5073052;28;20151;-67
2022/07/05 10:56:03;;;;;;;2.90;0.73;;;24.50;87.90;;;;;;5059600;28;20037;-68
2022/07/05 10:58:33;;;;;;;4.28;0.82;;;24.70;85.20;;;;;;5057204;28;20383;-68
2022/07/05 11:01:23;;;;;;;6.20;1.10;;;24.20;82.50;;;;;;5053529;28;20384;-68
2022/07/05 11:04:01;;;;;;;4.65;0.85;;;23.60;82.40;;;;;;5048089;28;20076;-67
2022/07/05 11:06:38;;;;;;;2.05;1.02;;;23.60;85.00;;;;;;5058039;28;20064;-68
2022/07/05 11:09:04;;;;;;;2.75;1.02;;;24.00;85.00;;;;;;5056126;28;20480;-68
2022/07/05 11:11:30;;;;;;;3.88;1.42;;;23.80;83.60;;;;;;5055581;28;20073;-68
2022/07/05 11:13:58;;;;;;;2.15;0.88;;;23.50;82.20;;;;;;5058520;28;20063;-67
2022/07/05 11:16:24;;;;;;;2.50;0.90;;;23.50;83.20;;;;;;5056457;28;20052;-67
2022/07/05 11:18:51;;;;;;;4.13;0.90;;;23.40;82.70;;;;;;5055653;28;20144;-68
2022/07/05 11:21:19;;;;;;;3.80;1.30;;;23.50;83.00;;;;;;5058434;28;20051;-67
2022/07/05 11:23:45;;;;;;;2.92;1.10;;;23.60;85.00;;;;;;5058920;28;20028;-68
2022/07/05 11:26:17;;;;;;;4.85;1.05;;;24.00;85.50;;;;;;5056724;28;20047;-68
2022/07/05 11:28:47;;;;;;;2.67;1.00;;;24.30;84.70;;;;;;5054155;28;20044;-67
2022/07/05 11:31:39;;;;;;;2.53;1.17;;;24.80;86.90;;;;;;5053827;28;20056;-68
2022/07/05 11:34:17;;;;;;;2.22;1.65;;;25.00;84.90;;;;;;5052430;28;20349;-68
2022/07/05 11:36:42;;;;;;;4.88;1.17;;;24.50;84.00;;;;;;5063939;28;20045;-68
2022/07/05 11:39:12;;;;;;;3.45;1.02;;;24.60;85.10;;;;;;5063479;28;20032;-68
2022/07/05 11:41:40;;;;;;;4.18;1.30;;;24.70;85.90;;;;;;5059631;28;20107;-68
2022/07/05 11:44:07;;;;;;;2.58;1.10;;;24.40;83.30;;;;;;5059921;28;20070;-68
2022/07/05 11:46:33;;;;;;;1.90;1.00;;;24.40;84.90;;;;;;5060140;28;20033;-68
2022/07/05 11:49:03;;;;;;;3.15;0.90;;;23.90;82.00;;;;;;5057639;28;20048;-68
2022/07/05 11:51:28;;;;;;;2.53;1.00;;;24.00;85.60;;;;;;5060073;28;20277;-68
2022/07/05 11:53:54;;;;;;;2.33;0.80;;;23.70;83.40;;;;;;5058940;28;20112;-68
2022/07/05 11:56:20;;;;;;;2.72;0.90;;;23.70;82.50;;;;;;5055384;28;20049;-68
2022/07/05 11:58:46;;;;;;;4.82;1.10;;;24.10;83.20;;;;;;5058429;28;20570;-68
2022/07/05 12:01:11;;;;;;;3.88;0.95;;;24.60;85.40;;;;;;5061016;28;20041;-68
2022/07/05 12:03:39;;;;;;;4.07;1.08;;;24.40;84.90;;;;;;5052798;28;20056;-68
2022/07/05 12:06:15;;;;;;;3.60;1.10;;;23.70;85.70;;;;;;5057306;28;20044;-68
2022/07/05 12:08:41;;;;;;;5.37;1.23;;;23.10;86.90;;;;;;5050699;28;20040;-66
2022/07/05 12:13:55;;;;;;;4.20;0.90;;;22.80;87.90;;;;;;5055092;28;20067;-68
2022/07/05 12:16:21;;;;;;;3.35;1.15;;;22.80;88.30;;;;;;5055840;28;20571;-68
2022/07/05 12:19:00;;;;;;;4.90;1.20;;;22.70;90.00;;;;;;5045530;28;20492;-69
2022/07/05 12:21:26;;;;;;;3.25;1.10;;;22.90;89.60;;;;;;5052989;28;20049;-68
2022/07/05 12:23:51;;;;;;;2.60;1.00;;;23.00;88.80;;;;;;5057395;28;20036;-67
2022/07/05 12:26:18;;;;;;;4.32;1.10;;;23.20;89.00;;;;;;5052494;28;20511;-68
2022/07/05 12:28:45;;;;;;;5.18;1.30;;;23.40;89.60;;;;;;5056639;28;20056;-72
2022/07/05 12:31:29;;;;;;;9.30;1.20;;;23.60;89.20;;;;;;5052500;28;20072;-70
2022/07/05 12:34:17;;;;;;;2.05;0.90;;;23.20;88.00;;;;;;5057718;28;20041;-70
2022/07/05 12:36:43;;;;;;;2.08;0.90;;;23.20;87.70;;;;;;5054963;28;20055;-68
2022/07/05 12:39:09;;;;;;;2.97;1.40;;;23.30;88.40;;;;;;5056624;28;20053;-69
2022/07/05 12:41:42;;;;;;;3.72;1.10;;;22.90;87.90;;;;;;5055582;28;20049;-68
2022/07/05 12:44:08;;;;;;;3.50;1.13;;;22.70;88.20;;;;;;5054162;28;20515;-68
2022/07/05 12:46:38;;;;;;;3.97;1.17;;;22.50;87.30;;;;;;5040452;28;20042;-68
2022/07/05 12:49:04;;;;;;;3.90;1.08;;;22.50;87.80;;;;;;5046703;28;20133;-69
2022/07/05 12:51:37;;;;;;;4.50;1.30;;;22.50;86.40;;;;;;5061470;28;20045;-69
2022/07/05 12:59:40;;;;;;;11.10;2.10;;;23.20;88.50;;;;;;5058819;28;20488;-68